Time;durP1;ratioP1;P1;durP2;ratioP2;P2;SDS_P1;SDS_P2;PMS_P1;PMS_P2;Temp;Humidity;BMP_temperature;BMP_pressure;BME280_temperature;BME280_humidity;BME280_pressure;Samples;Min_cycle;Max_cycle;Signal;HPM_P1;HPM_P2
2023/06/27 00:02:21;;;;;;;3.88;1.35;;;15.40;99.90;;;;;;5030648;28;20219;-51
2023/06/27 00:04:47;;;;;;;4.00;1.88;;;15.40;99.90;;;;;;5017291;28;20027;-55
2023/06/27 00:07:13;;;;;;;3.45;1.90;;;15.40;99.90;;;;;;5026213;28;20030;-53
2023/06/27 00:09:38;;;;;;;4.22;1.83;;;15.40;99.90;;;;;;4998109;28;20485;-54
2023/06/27 00:12:05;;;;;;;3.40;2.00;;;15.30;99.90;;;;;;5030403;28;20025;-53
2023/06/27 00:14:36;;;;;;;6.03;1.90;;;15.30;99.90;;;;;;5016866;28;20133;-52
2023/06/27 00:17:03;;;;;;;4.07;2.03;;;15.20;99.90;;;;;;5011477;28;20030;-53
2023/06/27 00:19:30;;;;;;;2.90;1.70;;;15.20;99.90;;;;;;5028612;28;20087;-53
2023/06/27 00:21:56;;;;;;;4.40;1.75;;;15.10;99.90;;;;;;5030776;28;20028;-52
2023/06/27 00:24:23;;;;;;;4.28;1.92;;;15.10;99.90;;;;;;5017940;28;20545;-52
2023/06/27 00:26:49;;;;;;;5.20;2.00;;;15.10;99.90;;;;;;5030301;28;20087;-52
2023/06/27 00:29:14;;;;;;;3.40;1.88;;;15.00;99.90;;;;;;5028539;28;20038;-52
2023/06/27 00:31:40;;;;;;;6.72;1.90;;;15.00;99.90;;;;;;5030722;28;20029;-53
2023/06/27 00:34:06;;;;;;;2.88;2.05;;;15.00;99.90;;;;;;5028633;28;20041;-52
2023/06/27 00:36:31;;;;;;;2.13;1.65;;;14.90;99.90;;;;;;5030528;28;20068;-55
2023/06/27 00:38:57;;;;;;;2.97;1.80;;;14.90;99.90;;;;;;5028596;28;20037;-52
2023/06/27 00:41:22;;;;;;;5.03;1.95;;;14.90;99.90;;;;;;5030349;28;20033;-55
2023/06/27 00:43:48;;;;;;;3.50;2.28;;;14.80;99.90;;;;;;5028500;28;20033;-54
2023/06/27 00:46:32;;;;;;;4.10;1.95;;;14.90;99.90;;;;;;5030484;28;20026;-54
2023/06/27 00:48:57;;;;;;;3.03;2.22;;;14.80;99.90;;;;;;5010897;28;20041;-54
2023/06/27 00:51:23;;;;;;;4.18;2.00;;;14.80;99.90;;;;;;5030309;28;20037;-54
2023/06/27 00:53:49;;;;;;;2.33;1.70;;;14.80;99.90;;;;;;5028201;28;20037;-54
2023/06/27 00:56:14;;;;;;;4.07;2.20;;;14.80;99.90;;;;;;5030112;28;20054;-52
2023/06/27 00:58:40;;;;;;;3.85;2.10;;;14.70;99.90;;;;;;5028321;28;20061;-51
2023/06/27 01:01:05;;;;;;;5.10;1.95;;;14.70;99.90;;;;;;5030299;28;20021;-54
2023/06/27 01:03:32;;;;;;;3.15;1.90;;;14.70;99.90;;;;;;5023988;28;20385;-50
2023/06/27 01:06:00;;;;;;;4.22;1.80;;;14.70;99.90;;;;;;5016678;28;20018;-52
2023/06/27 01:08:32;;;;;;;3.58;1.85;;;14.70;99.90;;;;;;5028035;28;20029;-53
2023/06/27 01:11:12;;;;;;;3.33;1.92;;;14.60;99.90;;;;;;5030125;28;20025;-54
2023/06/27 01:13:49;;;;;;;6.95;2.22;;;14.60;99.90;;;;;;5013225;28;20037;-55
2023/06/27 01:16:18;;;;;;;4.35;1.70;;;14.60;99.90;;;;;;5030050;28;20036;-52
2023/06/27 01:18:44;;;;;;;3.05;1.80;;;14.50;99.90;;;;;;5022147;28;20443;-54
2023/06/27 01:21:10;;;;;;;4.97;1.92;;;14.50;99.90;;;;;;5010138;28;20028;-54
2023/06/27 01:23:50;;;;;;;2.55;1.52;;;14.40;99.90;;;;;;5022590;28;20113;-55
2023/06/27 01:26:16;;;;;;;4.13;1.80;;;14.40;99.90;;;;;;5010042;28;20101;-50
2023/06/27 01:28:41;;;;;;;3.88;2.13;;;14.40;99.90;;;;;;5021760;28;20121;-55
2023/06/27 01:31:08;;;;;;;6.22;1.90;;;14.40;99.90;;;;;;5009907;28;20025;-54
2023/06/27 01:34:02;;;;;;;4.28;1.88;;;14.40;99.90;;;;;;5022667;28;20056;-56
2023/06/27 01:36:54;;;;;;;3.63;2.05;;;14.30;99.90;;;;;;5028781;28;20025;-53
2023/06/27 01:39:25;;;;;;;4.50;2.28;;;14.30;99.90;;;;;;5017243;28;20049;-55
2023/06/27 01:41:56;;;;;;;7.03;2.28;;;14.20;99.90;;;;;;5009767;28;20030;-53
2023/06/27 01:44:24;;;;;;;4.30;2.35;;;14.20;99.90;;;;;;5018854;28;20064;-54
2023/06/27 01:46:51;;;;;;;4.13;1.90;;;14.20;99.90;;;;;;5029457;28;20033;-55
2023/06/27 01:49:17;;;;;;;4.20;2.03;;;14.20;99.90;;;;;;5009650;28;20087;-50
2023/06/27 01:51:43;;;;;;;4.82;2.03;;;14.20;99.90;;;;;;5029207;28;20079;-52
2023/06/27 01:54:08;;;;;;;5.50;2.50;;;14.20;99.90;;;;;;5009257;28;20037;-57
2023/06/27 01:56:34;;;;;;;4.90;2.10;;;14.10;99.90;;;;;;5028818;28;20049;-53
2023/06/27 01:58:59;;;;;;;6.47;2.10;;;14.10;99.90;;;;;;5026998;28;20552;-54
2023/06/27 02:01:25;;;;;;;4.45;2.10;;;14.10;99.90;;;;;;5028934;28;20029;-53
2023/06/27 02:03:50;;;;;;;4.63;2.00;;;14.00;99.90;;;;;;5027121;28;20029;-56
2023/06/27 02:06:16;;;;;;;4.05;2.03;;;14.00;99.90;;;;;;5025949;28;20119;-54
2023/06/27 02:08:43;;;;;;;4.47;2.60;;;14.00;99.90;;;;;;5027011;28;20025;-53
2023/06/27 02:11:08;;;;;;;4.00;2.47;;;14.00;99.90;;;;;;5029037;28;20124;-54
2023/06/27 02:13:37;;;;;;;5.93;2.17;;;14.00;99.90;;;;;;5022382;28;20446;-55
2023/06/27 02:16:03;;;;;;;4.95;2.30;;;14.00;99.90;;;;;;5009085;28;20121;-54
2023/06/27 02:18:28;;;;;;;3.72;2.28;;;13.90;99.90;;;;;;5022480;28;20030;-50
2023/06/27 02:20:54;;;;;;;7.40;2.30;;;13.90;99.90;;;;;;5009139;28;20030;-52
2023/06/27 02:23:19;;;;;;;3.88;2.17;;;13.90;99.90;;;;;;5023403;28;20076;-54
2023/06/27 02:25:45;;;;;;;3.00;2.35;;;13.90;99.90;;;;;;5009255;28;20377;-54
2023/06/27 02:28:10;;;;;;;4.97;2.38;;;13.90;99.90;;;;;;5025924;28;20436;-53
2023/06/27 02:30:36;;;;;;;6.80;2.30;;;13.80;99.90;;;;;;5028685;28;20026;-51
2023/06/27 02:33:01;;;;;;;8.73;2.50;;;13.80;99.90;;;;;;5027187;28;20048;-52
2023/06/27 02:35:27;;;;;;;8.95;2.85;;;13.80;99.90;;;;;;5008851;28;20038;-54
2023/06/27 02:37:52;;;;;;;3.85;2.63;;;13.80;99.90;;;;;;5027728;28;20044;-53
2023/06/27 02:40:18;;;;;;;6.55;2.83;;;13.80;99.90;;;;;;5007968;28;20401;-53
2023/06/27 02:42:43;;;;;;;7.82;2.92;;;13.80;99.90;;;;;;5027836;28;20065;-54
2023/06/27 02:45:09;;;;;;;5.15;2.72;;;13.80;99.90;;;;;;5009170;28;20040;-52
2023/06/27 02:47:35;;;;;;;6.05;2.92;;;13.80;99.90;;;;;;5027504;28;20126;-52
2023/06/27 02:50:00;;;;;;;7.30;3.08;;;13.80;99.90;;;;;;5026438;28;20496;-53
2023/06/27 02:52:26;;;;;;;10.20;3.17;;;13.80;99.90;;;;;;5027290;28;20040;-55
2023/06/27 02:54:52;;;;;;;4.57;2.67;;;13.80;99.90;;;;;;5011363;28;20034;-52
2023/06/27 02:57:17;;;;;;;8.20;3.00;;;13.80;99.90;;;;;;5027416;28;20081;-54
2023/06/27 02:59:43;;;;;;;8.75;3.00;;;13.80;99.90;;;;;;5012571;28;20058;-51
2023/06/27 03:02:08;;;;;;;8.02;2.83;;;13.90;99.90;;;;;;5027565;28;20400;-55
2023/06/27 03:04:36;;;;;;;6.18;2.97;;;13.90;99.90;;;;;;5014095;28;20041;-53
2023/06/27 03:07:01;;;;;;;7.18;3.00;;;13.90;99.90;;;;;;5025723;28;20073;-52
2023/06/27 03:09:27;;;;;;;7.78;2.70;;;13.90;99.90;;;;;;5014520;28;20667;-54
2023/06/27 03:11:52;;;;;;;9.27;2.83;;;13.90;99.90;;;;;;5027387;28;20057;-53
2023/06/27 03:14:18;;;;;;;7.65;2.70;;;13.90;99.90;;;;;;5008277;28;20465;-51
2023/06/27 03:16:44;;;;;;;8.35;3.20;;;14.00;99.90;;;;;;5008323;28;20441;-51
2023/06/27 03:19:10;;;;;;;6.95;2.60;;;14.00;99.90;;;;;;5027990;28;20069;-57
2023/06/27 03:21:36;;;;;;;5.45;2.90;;;14.00;99.90;;;;;;5012414;28;20108;-50
2023/06/27 03:24:01;;;;;;;6.95;2.72;;;14.10;99.90;;;;;;5009649;28;20025;-53
2023/06/27 03:26:28;;;;;;;7.50;2.83;;;14.10;99.90;;;;;;5013224;28;20517;-49
2023/06/27 03:28:54;;;;;;;6.57;3.05;;;14.20;99.90;;;;;;5027188;28;20030;-55
2023/06/27 03:31:20;;;;;;;6.53;3.00;;;14.30;99.90;;;;;;4996573;28;20490;-54
2023/06/27 03:33:46;;;;;;;6.40;3.33;;;14.40;99.90;;;;;;5023551;28;20060;-55
2023/06/27 03:36:12;;;;;;;5.15;2.58;;;14.50;99.90;;;;;;5047993;28;20052;-53
2023/06/27 03:38:37;;;;;;;12.10;3.35;;;14.60;99.90;;;;;;5026230;28;20033;-51
2023/06/27 03:41:03;;;;;;;4.68;2.83;;;15.00;99.90;;;;;;5027887;28;20100;-55
2023/06/27 03:43:28;;;;;;;3.65;2.63;;;15.50;99.90;;;;;;5027592;28;20090;-54
2023/06/27 03:45:54;;;;;;;6.30;3.03;;;16.10;99.90;;;;;;5025588;28;20025;-52
2023/06/27 03:48:19;;;;;;;7.20;2.60;;;16.60;99.90;;;;;;5027373;28;20440;-54
2023/06/27 03:50:45;;;;;;;6.47;2.83;;;17.20;99.90;;;;;;5025606;28;20045;-55
2023/06/27 03:53:10;;;;;;;7.20;2.58;;;17.70;99.90;;;;;;5025159;28;20060;-53
2023/06/27 03:55:38;;;;;;;8.90;3.38;;;18.20;99.90;;;;;;5027438;28;20034;-52
2023/06/27 03:58:03;;;;;;;3.83;2.17;;;18.70;99.90;;;;;;5025844;28;20103;-53
2023/06/27 04:00:29;;;;;;;4.55;2.55;;;19.10;98.50;;;;;;5027784;28;20457;-55
2023/06/27 04:02:54;;;;;;;5.80;2.50;;;19.70;97.30;;;;;;5028766;28;20033;-54
2023/06/27 04:05:20;;;;;;;9.80;2.67;;;20.10;95.40;;;;;;5012280;28;20387;-54
2023/06/27 04:07:46;;;;;;;3.65;2.17;;;20.60;93.30;;;;;;5031431;28;20021;-52
2023/06/27 04:10:11;;;;;;;4.40;2.15;;;21.00;90.00;;;;;;5011720;28;20034;-55
2023/06/27 04:12:37;;;;;;;6.00;2.00;;;21.40;90.30;;;;;;5030354;28;20087;-53
2023/06/27 04:15:03;;;;;;;7.35;2.25;;;21.90;88.10;;;;;;5012953;28;20057;-52
2023/06/27 04:17:29;;;;;;;5.80;1.90;;;22.20;82.20;;;;;;5030512;28;20115;-55
2023/06/27 04:19:54;;;;;;;4.90;2.00;;;22.60;80.70;;;;;;5013926;28;20647;-55
2023/06/27 04:22:20;;;;;;;7.53;2.00;;;23.00;77.80;;;;;;5030377;28;20029;-55
2023/06/27 04:24:45;;;;;;;6.80;2.10;;;23.30;75.90;;;;;;5029151;28;20040;-53
2023/06/27 04:27:11;;;;;;;5.63;2.05;;;23.60;74.70;;;;;;5030852;28;20159;-55
2023/06/27 04:29:36;;;;;;;4.72;1.90;;;24.00;73.40;;;;;;5016131;28;20034;-55
2023/06/27 04:32:03;;;;;;;7.60;1.67;;;24.40;71.20;;;;;;5030332;28;20029;-54
2023/06/27 04:34:28;;;;;;;6.30;1.90;;;24.70;67.60;;;;;;5016667;28;20116;-56
2023/06/27 04:36:54;;;;;;;4.78;1.77;;;25.00;66.80;;;;;;5026176;28;20029;-56
2023/06/27 04:39:20;;;;;;;7.63;2.08;;;25.20;64.70;;;;;;5011230;28;20124;-56
2023/06/27 04:41:45;;;;;;;7.10;2.10;;;25.50;62.50;;;;;;5028065;28;20454;-55
2023/06/27 04:44:10;;;;;;;5.63;2.03;;;25.80;61.30;;;;;;5030521;28;20128;-55
2023/06/27 04:46:36;;;;;;;4.03;1.50;;;26.10;59.70;;;;;;5026601;28;20200;-53
2023/06/27 04:49:02;;;;;;;3.38;1.60;;;26.40;57.40;;;;;;5030348;28;20071;-56
2023/06/27 04:51:28;;;;;;;4.50;1.98;;;26.70;56.30;;;;;;5039766;28;20025;-55
2023/06/27 04:53:54;;;;;;;10.35;2.28;;;27.00;54.90;;;;;;5030735;28;20037;-55
2023/06/27 04:56:20;;;;;;;6.00;2.60;;;27.30;52.00;;;;;;5027925;28;20048;-55
2023/06/27 04:58:46;;;;;;;5.10;1.90;;;27.20;49.30;;;;;;5030274;28;20026;-54
2023/06/27 05:01:11;;;;;;;5.82;1.98;;;27.30;46.20;;;;;;5028003;28;20036;-55
2023/06/27 05:03:41;;;;;;;4.82;1.50;;;27.50;47.50;;;;;;5010467;28;20113;-55
2023/06/27 05:06:07;;;;;;;4.93;1.98;;;27.80;42.70;;;;;;5021781;28;20021;-56
2023/06/27 05:08:33;;;;;;;3.42;1.70;;;28.00;44.30;;;;;;5028374;28;20044;-55
2023/06/27 05:10:58;;;;;;;4.78;1.67;;;28.30;42.70;;;;;;5026817;28;20033;-53
2023/06/27 05:13:24;;;;;;;4.90;1.80;;;28.80;41.50;;;;;;5029873;28;20393;-56
2023/06/27 05:15:49;;;;;;;3.60;1.55;;;29.10;39.80;;;;;;5027210;28;20507;-56
2023/06/27 05:18:15;;;;;;;3.78;1.35;;;29.60;38.30;;;;;;5045882;28;20602;-56
2023/06/27 05:20:41;;;;;;;3.67;1.45;;;29.80;37.10;;;;;;5026713;28;20052;-56
2023/06/27 05:23:07;;;;;;;4.07;1.90;;;29.80;35.40;;;;;;5028850;28;20160;-56
2023/06/27 05:25:33;;;;;;;4.57;1.98;;;29.90;32.60;;;;;;5023107;28;20022;-57
2023/06/27 05:27:59;;;;;;;8.57;1.83;;;30.00;31.30;;;;;;5008867;28;20545;-56
2023/06/27 05:30:27;;;;;;;3.63;1.52;;;30.40;28.80;;;;;;5023448;28;20459;-57
2023/06/27 05:32:54;;;;;;;4.43;1.98;;;30.20;29.40;;;;;;5008693;28;20121;-55
2023/06/27 05:35:20;;;;;;;4.68;1.70;;;30.30;28.00;;;;;;5023949;28;20049;-55
2023/06/27 05:37:45;;;;;;;4.18;1.48;;;30.70;27.10;;;;;;4990994;28;20468;-54
2023/06/27 05:40:11;;;;;;;1.85;1.38;;;30.40;26.00;;;;;;5025485;28;20129;-57
2023/06/27 05:42:37;;;;;;;3.50;1.30;;;30.70;26.20;;;;;;5009069;28;20036;-56
2023/06/27 05:45:03;;;;;;;4.75;1.73;;;31.00;24.70;;;;;;5034751;28;20377;-56
2023/06/27 05:47:28;;;;;;;4.15;1.75;;;31.70;23.90;;;;;;5027886;28;20492;-55
2023/06/27 05:49:54;;;;;;;4.18;1.30;;;32.10;22.30;;;;;;5015971;28;20034;-56
2023/06/27 05:52:19;;;;;;;5.35;1.63;;;32.70;21.40;;;;;;5009370;28;20029;-56
2023/06/27 05:54:45;;;;;;;3.28;1.60;;;33.20;20.20;;;;;;5025785;28;20128;-55
2023/06/27 05:57:10;;;;;;;3.65;1.85;;;33.80;18.90;;;;;;5028027;28;20391;-56
2023/06/27 05:59:36;;;;;;;4.10;1.42;;;34.00;17.70;;;;;;5018177;28;20034;-53
2023/06/27 06:02:02;;;;;;;7.68;1.67;;;34.30;16.50;;;;;;5023456;28;20436;-56
2023/06/27 06:04:28;;;;;;;5.30;1.75;;;34.50;15.70;;;;;;5008364;28;20026;-53
2023/06/27 06:06:53;;;;;;;5.38;1.60;;;34.70;14.80;;;;;;5020910;28;20539;-55
2023/06/27 06:09:19;;;;;;;5.13;1.58;;;35.00;13.10;;;;;;5008420;28;20030;-55
2023/06/27 06:11:44;;;;;;;4.15;1.50;;;35.20;13.10;;;;;;5027485;28;20103;-55
2023/06/27 06:14:10;;;;;;;5.10;1.90;;;34.70;12.80;;;;;;5026193;28;20124;-52
2023/06/27 06:16:35;;;;;;;3.53;1.73;;;34.20;11.60;;;;;;5027696;28;20034;-56
2023/06/27 06:19:02;;;;;;;4.45;1.80;;;33.80;12.40;;;;;;5007863;28;20030;-55
2023/06/27 06:21:28;;;;;;;6.20;1.60;;;32.80;11.10;;;;;;5027211;28;20039;-53
2023/06/27 06:23:53;;;;;;;4.10;1.70;;;32.40;12.30;;;;;;5008935;28;20026;-56
2023/06/27 06:26:19;;;;;;;3.05;1.40;;;31.40;12.70;;;;;;5026897;28;20105;-55
2023/06/27 06:28:45;;;;;;;2.28;0.98;;;31.00;13.30;;;;;;5010176;28;20113;-53
2023/06/27 06:31:11;;;;;;;5.65;1.45;;;30.40;13.50;;;;;;5027032;28;20032;-54
2023/06/27 06:33:38;;;;;;;3.40;1.50;;;30.20;13.80;;;;;;5011153;28;20036;-55
2023/06/27 06:36:04;;;;;;;5.07;1.73;;;31.00;13.10;;;;;;5027102;28;20021;-55
2023/06/27 06:38:30;;;;;;;6.45;1.33;;;32.00;12.30;;;;;;5012019;28;20038;-55
2023/06/27 06:40:55;;;;;;;4.82;1.60;;;32.90;11.30;;;;;;5026745;28;20044;-55
2023/06/27 06:43:26;;;;;;;5.50;1.70;;;33.80;10.50;;;;;;5025582;28;20029;-55
2023/06/27 06:45:52;;;;;;;4.32;1.40;;;34.30;9.70;;;;;;5007853;28;20091;-56
2023/06/27 06:48:21;;;;;;;4.88;1.38;;;34.80;9.50;;;;;;5024979;28;20105;-54
2023/06/27 06:50:49;;;;;;;3.80;1.30;;;34.80;9.10;;;;;;5026997;28;20691;-56
2023/06/27 06:53:14;;;;;;;4.53;1.30;;;34.60;8.50;;;;;;5013202;28;20518;-55
2023/06/27 06:55:40;;;;;;;2.05;1.17;;;33.50;8.60;;;;;;5027025;28;20046;-54
2023/06/27 06:58:05;;;;;;;3.15;1.27;;;32.60;9.70;;;;;;5006557;28;20025;-54
2023/06/27 07:00:31;;;;;;;4.30;1.58;;;31.60;10.30;;;;;;5007397;28;20108;-54
2023/06/27 07:02:57;;;;;;;6.82;1.58;;;30.40;11.40;;;;;;5026158;28;20033;-56
2023/06/27 07:05:22;;;;;;;3.65;1.35;;;29.20;12.40;;;;;;5008366;28;20030;-55
2023/06/27 07:07:48;;;;;;;5.78;1.55;;;28.20;13.40;;;;;;5027053;28;20037;-52
2023/06/27 07:10:14;;;;;;;4.20;1.70;;;27.80;14.10;;;;;;5025074;28;20053;-55
2023/06/27 07:12:40;;;;;;;2.35;1.42;;;28.40;13.60;;;;;;5026992;28;20188;-54
2023/06/27 07:15:06;;;;;;;4.72;1.40;;;30.00;12.60;;;;;;5008461;28;20052;-51
2023/06/27 07:17:32;;;;;;;2.53;1.27;;;31.80;11.20;;;;;;5026366;28;20270;-54
2023/06/27 07:19:58;;;;;;;5.38;1.80;;;32.50;10.40;;;;;;5009495;28;20109;-55
2023/06/27 07:22:23;;;;;;;5.28;1.48;;;33.60;9.00;;;;;;5026086;28;20167;-55
2023/06/27 07:24:49;;;;;;;4.65;1.55;;;34.00;8.80;;;;;;5010468;28;20026;-53
2023/06/27 07:27:15;;;;;;;4.55;1.50;;;32.40;9.10;;;;;;5026112;28;20496;-56
2023/06/27 07:29:40;;;;;;;3.30;1.15;;;32.10;9.70;;;;;;5011534;28;20034;-54
2023/06/27 07:32:07;;;;;;;4.32;1.60;;;33.10;9.10;;;;;;5026111;28;20037;-55
2023/06/27 07:34:33;;;;;;;5.95;1.30;;;34.30;8.20;;;;;;5003635;28;20038;-56
2023/06/27 07:36:59;;;;;;;2.97;1.30;;;35.60;7.10;;;;;;5026224;28;20033;-56
2023/06/27 07:39:24;;;;;;;2.75;1.30;;;36.50;6.50;;;;;;5017378;28;20120;-53
2023/06/27 07:41:50;;;;;;;3.15;1.35;;;35.80;6.10;;;;;;5030121;28;20488;-55
2023/06/27 07:44:15;;;;;;;4.45;1.40;;;34.60;6.60;;;;;;5028763;28;20554;-55
2023/06/27 07:46:41;;;;;;;5.82;1.30;;;33.60;7.20;;;;;;5030268;28;20399;-52
2023/06/27 07:49:07;;;;;;;3.95;1.05;;;34.00;7.00;;;;;;5028539;28;20043;-55
2023/06/27 07:51:33;;;;;;;5.03;1.30;;;34.70;6.30;;;;;;5030086;28;20040;-55
2023/06/27 07:54:00;;;;;;;2.42;1.13;;;35.20;5.50;;;;;;5028203;28;20053;-55
2023/06/27 07:56:25;;;;;;;3.60;0.90;;;35.80;4.40;;;;;;5010600;28;20049;-56
2023/06/27 07:58:51;;;;;;;1.75;1.08;;;35.40;3.70;;;;;;5030595;28;20052;-55
2023/06/27 08:01:17;;;;;;;2.30;0.95;;;34.30;4.70;;;;;;5027519;28;20029;-53
2023/06/27 08:03:42;;;;;;;4.82;1.38;;;33.70;4.60;;;;;;5010601;28;20030;-54
2023/06/27 08:06:07;;;;;;;2.72;1.00;;;33.70;4.60;;;;;;5029273;28;20040;-52
2023/06/27 08:08:36;;;;;;;1.90;0.90;;;34.30;4.60;;;;;;5008965;28;20065;-54
2023/06/27 08:11:02;;;;;;;3.55;0.90;;;35.30;4.10;;;;;;5029931;28;20067;-53
2023/06/27 08:13:27;;;;;;;2.78;1.13;;;36.00;3.90;;;;;;5009626;28;20073;-54
2023/06/27 08:15:53;;;;;;;3.05;1.17;;;36.90;3.50;;;;;;5029583;28;20029;-56
2023/06/27 08:18:18;;;;;;;3.13;1.25;;;37.00;3.00;;;;;;5028073;28;20614;-53
2023/06/27 08:20:43;;;;;;;2.05;0.90;;;36.10;3.40;;;;;;5030048;28;20037;-54
2023/06/27 08:23:09;;;;;;;4.95;1.20;;;35.00;4.30;;;;;;5012130;28;20041;-54
2023/06/27 08:25:35;;;;;;;6.93;0.90;;;34.70;4.10;;;;;;5029228;28;20063;-54
2023/06/27 08:28:00;;;;;;;1.58;0.90;;;34.50;2.50;;;;;;5013317;28;20033;-55
2023/06/27 08:30:29;;;;;;;2.92;1.17;;;33.80;4.40;;;;;;5028938;28;20059;-55
2023/06/27 08:32:56;;;;;;;4.00;1.08;;;33.50;4.40;;;;;;5013864;28;20030;-53
2023/06/27 08:35:21;;;;;;;3.70;1.33;;;33.80;4.20;;;;;;5029214;28;20036;-54
2023/06/27 08:37:47;;;;;;;2.45;0.82;;;33.40;4.40;;;;;;5014783;28;20026;-53
2023/06/27 08:40:26;;;;;;;2.70;0.98;;;32.90;4.40;;;;;;5028928;28;20040;-55
2023/06/27 08:42:52;;;;;;;2.17;1.08;;;33.10;3.60;;;;;;5021660;28;20424;-57
2023/06/27 08:45:17;;;;;;;2.90;1.20;;;32.90;4.90;;;;;;5029334;28;20037;-56
2023/06/27 08:47:48;;;;;;;4.50;1.00;;;32.10;5.30;;;;;;5015353;28;20573;-51
2023/06/27 08:50:14;;;;;;;2.53;0.98;;;31.10;6.10;;;;;;5009468;28;20057;-56
2023/06/27 08:52:44;;;;;;;4.13;1.00;;;29.60;7.00;;;;;;5026784;28;20034;-54
2023/06/27 08:55:21;;;;;;;1.25;0.70;;;29.00;7.80;;;;;;5027316;28;20029;-55
2023/06/27 08:57:47;;;;;;;1.65;0.70;;;28.90;7.90;;;;;;5026868;28;20036;-54
2023/06/27 09:00:19;;;;;;;2.13;0.90;;;28.70;8.00;;;;;;5029041;28;20390;-53
2023/06/27 09:02:45;;;;;;;3.60;0.88;;;28.70;8.10;;;;;;5026374;28;20037;-54
2023/06/27 09:05:10;;;;;;;2.95;1.20;;;28.40;8.00;;;;;;5025706;28;20759;-54
2023/06/27 09:07:36;;;;;;;3.00;0.80;;;28.10;8.10;;;;;;5009382;28;20108;-51
2023/06/27 09:10:02;;;;;;;2.50;0.98;;;27.50;8.50;;;;;;5028432;28;20049;-56
2023/06/27 09:12:29;;;;;;;2.25;0.90;;;27.30;8.90;;;;;;5010501;28;20029;-57
2023/06/27 09:14:54;;;;;;;1.58;0.88;;;27.60;9.60;;;;;;5028359;28;20071;-53
2023/06/27 09:17:20;;;;;;;1.45;0.90;;;28.00;10.00;;;;;;5011530;28;20073;-56
2023/06/27 09:19:45;;;;;;;3.50;0.98;;;28.10;9.80;;;;;;5028094;28;20025;-55
2023/06/27 09:22:11;;;;;;;5.95;1.45;;;27.80;9.40;;;;;;5012530;28;20042;-54
2023/06/27 09:24:40;;;;;;;1.65;0.93;;;27.50;10.50;;;;;;5027975;28;20569;-55
2023/06/27 09:27:07;;;;;;;3.03;0.90;;;26.90;11.90;;;;;;5013534;28;20026;-55
2023/06/27 09:29:35;;;;;;;2.40;0.90;;;26.40;12.60;;;;;;5028182;28;20128;-57
2023/06/27 09:32:05;;;;;;;1.67;0.90;;;26.20;14.00;;;;;;5013735;28;20074;-56
2023/06/27 09:34:31;;;;;;;2.78;0.80;;;26.30;14.80;;;;;;5010182;28;20451;-57
2023/06/27 09:37:01;;;;;;;2.50;0.88;;;26.40;14.90;;;;;;5014411;28;20030;-58
2023/06/27 09:39:26;;;;;;;3.25;0.93;;;26.70;14.90;;;;;;5028448;28;20029;-57
2023/06/27 09:41:52;;;;;;;3.22;0.80;;;27.00;14.60;;;;;;5015075;28;20064;-58
2023/06/27 09:44:19;;;;;;;2.40;1.00;;;27.40;14.30;;;;;;5027666;28;20049;-56
2023/06/27 09:46:47;;;;;;;3.30;1.45;;;27.60;13.60;;;;;;5026268;28;20029;-56
2023/06/27 09:49:14;;;;;;;2.40;0.80;;;27.50;13.10;;;;;;5028316;28;20025;-56
2023/06/27 09:51:40;;;;;;;1.48;0.80;;;27.60;13.20;;;;;;5036041;28;20108;-57
2023/06/27 09:54:06;;;;;;;2.95;1.00;;;27.50;11.60;;;;;;5018049;28;20422;-56
2023/06/27 09:56:32;;;;;;;1.33;0.77;;;27.50;11.80;;;;;;5027126;28;20545;-56
2023/06/27 09:59:11;;;;;;;3.13;1.00;;;27.40;10.90;;;;;;5018460;28;20119;-56
2023/06/27 10:01:38;;;;;;;1.83;0.98;;;26.80;11.50;;;;;;5027494;28;20067;-56
2023/06/27 10:04:05;;;;;;;1.35;0.65;;;26.40;11.50;;;;;;5025805;28;20036;-56
2023/06/27 10:06:31;;;;;;;1.42;0.80;;;26.10;11.40;;;;;;5007113;28;20168;-56
2023/06/27 10:08:57;;;;;;;1.45;0.73;;;25.70;11.80;;;;;;5025946;28;20468;-56
2023/06/27 10:11:24;;;;;;;0.93;0.60;;;25.50;12.70;;;;;;5027778;28;20022;-55
2023/06/27 10:13:50;;;;;;;1.17;0.68;;;25.30;12.30;;;;;;5025755;28;20042;-56
2023/06/27 10:16:17;;;;;;;1.20;0.73;;;25.20;12.70;;;;;;5027917;28;20036;-56
2023/06/27 10:18:43;;;;;;;1.52;0.70;;;25.10;12.80;;;;;;5002364;28;20044;-56
2023/06/27 10:21:09;;;;;;;1.35;0.88;;;24.90;13.20;;;;;;5007937;28;20121;-56
2023/06/27 10:23:37;;;;;;;1.67;1.13;;;24.80;13.40;;;;;;5025047;28;20068;-57
2023/06/27 10:26:03;;;;;;;1.35;0.60;;;24.80;13.50;;;;;;5027703;28;20025;-54
2023/06/27 10:28:30;;;;;;;3.08;0.98;;;25.00;14.40;;;;;;5021786;28;20037;-57
2023/06/27 10:30:56;;;;;;;1.48;0.82;;;24.90;14.10;;;;;;5007914;28;20084;-57
2023/06/27 10:33:28;;;;;;;3.72;0.90;;;24.90;14.10;;;;;;5021889;28;20046;-55
2023/06/27 10:36:03;;;;;;;2.53;0.70;;;25.00;13.80;;;;;;5007914;28;20025;-57
2023/06/27 10:38:39;;;;;;;3.78;1.00;;;25.10;14.50;;;;;;5025090;28;20036;-57
2023/06/27 10:41:07;;;;;;;3.00;1.02;;;25.20;14.50;;;;;;5027366;28;20489;-57
2023/06/27 10:43:39;;;;;;;0.80;0.80;;;25.30;14.10;;;;;;5021156;28;20049;-57
2023/06/27 10:46:09;;;;;;;1.30;0.80;;;25.50;14.00;;;;;;5007842;28;20026;-57
2023/06/27 10:48:49;;;;;;;2.42;0.80;;;25.60;13.50;;;;;;5010076;28;20045;-57
2023/06/27 10:51:19;;;;;;;2.45;0.90;;;25.70;14.40;;;;;;5009511;28;20112;-57
2023/06/27 10:54:08;;;;;;;1.75;0.80;;;25.60;13.40;;;;;;5025216;28;20509;-57
2023/06/27 10:56:38;;;;;;;4.10;1.15;;;25.60;16.30;;;;;;5021221;28;20052;-55
2023/06/27 10:59:07;;;;;;;2.13;1.00;;;25.70;14.90;;;;;;5014092;28;20052;-56
2023/06/27 11:01:34;;;;;;;1.85;0.85;;;25.80;14.00;;;;;;5027289;28;20029;-57
2023/06/27 11:04:00;;;;;;;3.90;1.00;;;25.80;13.80;;;;;;5025205;28;20017;-58
2023/06/27 11:06:42;;;;;;;1.02;0.75;;;25.50;13.40;;;;;;5021242;28;20579;-57
2023/06/27 11:09:10;;;;;;;3.25;0.90;;;25.20;14.70;;;;;;5034114;28;20548;-55
2023/06/27 11:11:37;;;;;;;5.03;1.40;;;24.20;16.90;;;;;;5027501;28;20030;-57
2023/06/27 11:14:07;;;;;;;2.17;0.98;;;23.50;18.10;;;;;;5023519;28;20043;-56
2023/06/27 11:16:34;;;;;;;5.22;0.98;;;23.00;19.10;;;;;;5026963;28;20095;-57
2023/06/27 11:19:00;;;;;;;1.60;0.77;;;22.90;18.90;;;;;;5024928;28;20053;-57
2023/06/27 11:21:25;;;;;;;1.63;0.90;;;22.70;19.60;;;;;;5026749;28;20176;-57
2023/06/27 11:23:54;;;;;;;1.83;1.10;;;22.60;19.70;;;;;;5025130;28;20044;-57
2023/06/27 11:26:21;;;;;;;1.88;0.88;;;22.40;20.40;;;;;;5027078;28;20049;-57
2023/06/27 11:28:46;;;;;;;2.22;0.90;;;22.20;20.40;;;;;;5018733;28;20061;-56
2023/06/27 11:31:12;;;;;;;1.73;0.90;;;22.20;20.80;;;;;;5007211;28;20026;-57
2023/06/27 11:33:38;;;;;;;2.30;0.80;;;22.10;20.80;;;;;;5024158;28;20736;-55
2023/06/27 11:36:05;;;;;;;0.95;0.80;;;22.10;20.70;;;;;;5026721;28;20025;-55
2023/06/27 11:38:31;;;;;;;3.95;0.93;;;22.10;20.40;;;;;;5024818;28;20890;-56
2023/06/27 11:40:57;;;;;;;1.05;0.80;;;22.10;20.40;;;;;;5026750;28;20030;-53
2023/06/27 11:43:22;;;;;;;2.50;0.80;;;22.10;20.20;;;;;;5021999;28;20041;-55
2023/06/27 11:45:49;;;;;;;2.08;1.00;;;22.10;20.00;;;;;;5011549;28;20021;-55
2023/06/27 11:48:15;;;;;;;2.28;0.93;;;22.30;19.70;;;;;;5022782;28;20041;-55
2023/06/27 11:51:05;;;;;;;1.27;0.80;;;22.30;19.70;;;;;;5017464;28;20038;-53
2023/06/27 11:53:31;;;;;;;2.72;0.68;;;22.40;20.60;;;;;;5012789;28;20034;-56
2023/06/27 11:55:57;;;;;;;0.95;0.60;;;22.50;19.70;;;;;;5010107;28;20094;-56
2023/06/27 11:58:29;;;;;;;1.10;0.70;;;22.40;19.70;;;;;;5025858;28;20034;-57
2023/06/27 12:00:57;;;;;;;1.63;0.73;;;22.50;19.80;;;;;;5006077;28;20088;-57
2023/06/27 12:03:30;;;;;;;1.70;0.90;;;22.70;20.60;;;;;;5026130;28;20049;-57
2023/06/27 12:05:57;;;;;;;1.80;1.08;;;22.80;20.90;;;;;;5018137;28;20120;-61
2023/06/27 12:08:29;;;;;;;3.45;0.90;;;22.80;20.80;;;;;;5026362;28;20025;-56
2023/06/27 12:11:01;;;;;;;0.88;0.80;;;23.00;22.10;;;;;;5023530;28;20021;-57
2023/06/27 12:13:38;;;;;;;5.85;1.00;;;23.00;21.70;;;;;;5026686;28;20083;-57
2023/06/27 12:16:05;;;;;;;2.25;0.98;;;23.00;23.60;;;;;;5024944;28;20041;-57
2023/06/27 12:18:31;;;;;;;2.05;0.80;;;23.00;22.70;;;;;;5024626;28;20025;-58
2023/06/27 12:20:58;;;;;;;2.65;0.93;;;22.90;22.50;;;;;;5026383;28;20029;-56
2023/06/27 12:23:27;;;;;;;1.65;1.13;;;22.90;22.60;;;;;;5041218;28;20036;-56
2023/06/27 12:25:52;;;;;;;2.33;1.05;;;22.90;24.40;;;;;;5012444;28;20036;-57
2023/06/27 12:28:18;;;;;;;1.80;1.10;;;22.90;24.40;;;;;;5012763;28;20034;-56
2023/06/27 12:30:44;;;;;;;4.40;1.30;;;22.90;24.40;;;;;;5029282;28;20029;-57
2023/06/27 12:33:10;;;;;;;4.90;1.10;;;23.00;23.90;;;;;;5013794;28;20029;-57
2023/06/27 12:35:39;;;;;;;1.13;1.02;;;22.90;25.10;;;;;;5011571;28;20017;-58
2023/06/27 12:38:05;;;;;;;1.80;1.02;;;22.90;24.10;;;;;;5014462;28;20054;-58
2023/06/27 12:40:30;;;;;;;2.13;0.70;;;22.80;24.60;;;;;;5027275;28;20165;-57
2023/06/27 12:42:57;;;;;;;1.73;0.90;;;22.60;24.40;;;;;;5029756;28;20504;-58
2023/06/27 12:45:23;;;;;;;0.93;0.60;;;22.30;22.30;;;;;;4995235;28;20042;-59
2023/06/27 12:47:49;;;;;;;0.82;0.60;;;21.90;24.60;;;;;;5028981;28;20658;-56